createdAt,value
2018-12-19T00:00:38.878Z,129.20
2018-12-19T00:01:38.985Z,139.70
2018-12-19T00:02:39.078Z,132.00
2018-12-19T00:03:39.211Z,137.60
2018-12-19T00:04:39.217Z,143.10
2018-12-19T00:05:39.529Z,131.30
2018-12-19T00:06:39.374Z,128.30
2018-12-19T00:07:39.471Z,125.90
2018-12-19T00:08:39.579Z,128.80
2018-12-19T00:09:39.649Z,136.70
2018-12-19T00:10:39.706Z,139.70
2018-12-19T00:11:39.865Z,137.90
2018-12-19T00:12:39.862Z,132.70
2018-12-19T00:13:39.981Z,132.50
2018-12-19T00:14:40.053Z,127.50
2018-12-19T00:15:40.120Z,115.60
2018-12-19T00:16:40.213Z,124.10
2018-12-19T00:17:40.274Z,119.10
2018-12-19T00:18:40.352Z,124.00
2018-12-19T00:19:40.458Z,124.30
2018-12-19T00:20:40.594Z,122.40
2018-12-19T00:21:40.603Z,116.20
2018-12-19T00:22:40.667Z,126.50
2018-12-19T00:23:40.740Z,120.60
2018-12-19T00:24:40.833Z,123.50
2018-12-19T00:25:40.912Z,119.70
2018-12-19T00:26:41.005Z,121.60
2018-12-19T00:27:41.066Z,126.00
2018-12-19T00:28:41.253Z,113.60
2018-12-19T00:29:41.250Z,112.80
2018-12-19T00:30:41.306Z,120.00
2018-12-19T00:31:41.404Z,122.60
2018-12-19T00:32:41.472Z,116.70
2018-12-19T00:33:41.567Z,123.80
2018-12-19T00:34:41.624Z,112.20
2018-12-19T00:35:41.707Z,116.10
2018-12-19T00:36:41.870Z,120.30
2018-12-19T00:37:41.859Z,116.60
2018-12-19T00:38:41.952Z,113.70
2018-12-19T00:39:42.016Z,116.00
2018-12-19T00:40:42.092Z,122.30
2018-12-19T00:41:42.199Z,126.40
2018-12-19T00:42:42.261Z,112.30
2018-12-19T00:43:42.355Z,109.40
2018-12-19T00:44:42.506Z,120.30
2018-12-19T00:45:42.459Z,116.00
2018-12-19T00:46:42.579Z,124.30
2018-12-19T00:47:42.655Z,122.20
2018-12-19T00:48:42.742Z,118.30
2018-12-19T00:49:42.820Z,120.10
2018-12-19T00:50:42.886Z,122.10
2018-12-19T00:51:42.986Z,118.70
2018-12-19T00:52:43.071Z,114.40
2018-12-19T00:53:43.175Z,109.80
2018-12-19T00:54:43.209Z,117.60
2018-12-19T00:55:43.274Z,116.80
2018-12-19T00:56:43.369Z,115.10
2018-12-19T00:57:43.397Z,104.80
2018-12-19T00:58:43.506Z,119.30
2018-12-19T00:59:43.602Z,107.70
2018-12-19T01:00:43.670Z,105.60
2018-12-19T01:01:43.880Z,116.00
2018-12-19T01:02:43.812Z,111.90
2018-12-19T01:03:43.890Z,115.80
2018-12-19T01:04:48.076Z,122.80
2018-12-19T01:05:44.061Z,115.60
2018-12-19T01:06:44.157Z,121.90
2018-12-19T01:07:44.201Z,118.10
2018-12-19T01:08:44.276Z,112.90
2018-12-19T01:09:44.526Z,114.90
2018-12-19T01:10:44.467Z,118.60
2018-12-19T01:11:44.564Z,116.30
2018-12-19T01:12:44.610Z,107.70
2018-12-19T01:13:44.695Z,120.00
2018-12-19T01:14:44.830Z,117.10
2018-12-19T01:15:44.872Z,119.30
2018-12-19T01:16:44.966Z,122.70
2018-12-19T01:17:45.086Z,109.90
2018-12-19T01:18:45.074Z,117.90
2018-12-19T01:19:45.205Z,106.30
2018-12-19T01:20:45.249Z,120.30
2018-12-19T01:21:45.346Z,120.30
2018-12-19T01:22:45.404Z,112.40
2018-12-19T01:23:45.480Z,112.60
2018-12-19T01:24:45.578Z,105.70
2018-12-19T01:25:45.681Z,107.10
2018-12-19T01:26:45.715Z,115.70
2018-12-19T01:27:45.780Z,119.10
2018-12-19T01:28:45.858Z,117.10
2018-12-19T01:29:45.978Z,116.00
2018-12-19T01:30:46.019Z,117.20
2018-12-19T01:31:46.115Z,115.90
2018-12-19T01:32:46.178Z,118.90
2018-12-19T01:33:46.269Z,114.70
2018-12-19T01:34:46.435Z,125.20
2018-12-19T01:35:46.407Z,113.80
2018-12-19T01:36:46.493Z,112.00
2018-12-19T01:37:46.559Z,118.70
2018-12-19T01:38:46.661Z,111.40
2018-12-19T01:39:46.733Z,121.60
2018-12-19T01:40:46.810Z,120.60
2018-12-19T01:41:46.875Z,124.00
2018-12-19T01:42:47.044Z,131.70
2018-12-19T01:43:47.254Z,115.40
2018-12-19T01:44:47.115Z,120.60
2018-12-19T01:45:47.203Z,128.80
2018-12-19T01:46:47.257Z,141.00
2018-12-19T01:47:47.336Z,122.80
2018-12-19T01:48:47.411Z,138.80
2018-12-19T01:49:47.513Z,120.70
2018-12-19T01:50:47.660Z,143.40
2018-12-19T01:51:47.637Z,133.10
2018-12-19T01:52:47.720Z,142.40
2018-12-19T01:53:47.814Z,136.20
2018-12-19T01:54:47.906Z,127.80
2018-12-19T01:55:47.982Z,140.10
2018-12-19T01:56:48.062Z,126.70
2018-12-19T01:57:48.148Z,130.10
2018-12-19T01:58:48.239Z,132.80
2018-12-19T01:59:48.273Z,129.50
2018-12-19T02:00:48.368Z,132.40
2018-12-19T02:01:48.446Z,134.60
2018-12-19T02:02:48.500Z,138.90
2018-12-19T02:03:48.554Z,119.30
2018-12-19T02:04:48.660Z,135.30
2018-12-19T02:05:48.753Z,136.10
2018-12-19T02:06:48.866Z,140.30
2018-12-19T02:07:48.904Z,123.50
2018-12-19T02:08:48.959Z,134.40
2018-12-19T02:09:49.052Z,144.80
2018-12-19T02:10:49.145Z,149.80
2018-12-19T02:11:49.206Z,131.00
2018-12-19T02:12:49.291Z,129.10
2018-12-19T02:13:49.377Z,124.70
2018-12-19T02:14:49.487Z,132.30
2018-12-19T02:15:49.632Z,132.50
2018-12-19T02:16:49.610Z,136.30
2018-12-19T02:17:49.705Z,146.20
2018-12-19T02:18:49.761Z,135.40
2018-12-19T02:19:49.857Z,135.50
2018-12-19T02:20:49.922Z,141.40
2018-12-19T02:21:49.996Z,145.30
2018-12-19T02:22:50.088Z,145.50
2018-12-19T02:23:50.253Z,144.60
2018-12-19T02:24:50.224Z,143.20
2018-12-19T02:25:50.304Z,141.80
2018-12-19T02:26:50.388Z,136.80
2018-12-19T02:27:50.483Z,130.60
2018-12-19T02:28:50.541Z,143.10
2018-12-19T02:29:50.641Z,136.60
2018-12-19T02:30:50.713Z,137.40
2018-12-19T02:31:50.849Z,138.90
2018-12-19T02:32:50.854Z,131.50
2018-12-19T02:33:50.920Z,134.80
2018-12-19T02:34:51.023Z,146.00
2018-12-19T02:35:51.085Z,148.90
2018-12-19T02:36:51.139Z,140.00
2018-12-19T02:37:51.226Z,144.10
2018-12-19T02:38:51.307Z,124.00
2018-12-19T02:39:51.452Z,128.50
2018-12-19T02:40:51.462Z,124.70
2018-12-19T02:41:51.524Z,140.90
2018-12-19T02:42:51.601Z,144.00
2018-12-19T02:43:51.668Z,132.30
2018-12-19T02:44:51.792Z,130.00
2018-12-19T02:45:51.866Z,130.10
2018-12-19T02:46:51.935Z,135.10
2018-12-19T02:47:52.047Z,138.80
2018-12-19T02:48:52.127Z,145.50
2018-12-19T02:49:52.179Z,145.90
2018-12-19T02:50:52.232Z,141.60
2018-12-19T02:51:52.325Z,141.40
2018-12-19T02:52:52.410Z,142.00
2018-12-19T02:53:52.453Z,146.30
2018-12-19T02:54:52.550Z,151.60
2018-12-19T02:55:52.634Z,162.00
2018-12-19T02:56:52.811Z,136.40
2018-12-19T02:57:52.794Z,151.10
2018-12-19T02:58:52.838Z,147.00
2018-12-19T02:59:52.947Z,143.50
2018-12-19T03:00:53.016Z,145.50
2018-12-19T03:01:53.112Z,146.30
2018-12-19T03:02:53.195Z,129.00
2018-12-19T03:03:53.257Z,146.30
2018-12-19T03:04:53.469Z,141.80
2018-12-19T03:05:53.414Z,133.90
2018-12-19T03:06:53.495Z,145.20
2018-12-19T03:07:53.573Z,139.60
2018-12-19T03:08:53.639Z,129.30
2018-12-19T03:09:53.707Z,148.30
2018-12-19T03:10:53.778Z,135.30
2018-12-19T03:11:53.897Z,138.70
2018-12-19T03:12:54.004Z,163.30
2018-12-19T03:13:54.023Z,136.90
2018-12-19T03:14:54.106Z,143.60
2018-12-19T03:15:54.188Z,143.50
2018-12-19T03:16:54.298Z,133.10
2018-12-19T03:17:54.375Z,135.80
2018-12-19T03:18:54.437Z,135.50
2018-12-19T03:19:54.510Z,134.10
2018-12-19T03:20:54.664Z,130.40
2018-12-19T03:21:54.655Z,134.40
2018-12-19T03:22:54.997Z,139.50
2018-12-19T03:23:54.837Z,143.50
2018-12-19T03:24:54.910Z,120.70
2018-12-19T03:25:55.008Z,138.30
2018-12-19T03:26:55.090Z,149.90
2018-12-19T03:27:55.149Z,146.60
2018-12-19T03:28:55.243Z,129.60
2018-12-19T03:29:55.447Z,140.60
2018-12-19T03:30:55.426Z,130.20
2018-12-19T03:31:55.470Z,138.80
2018-12-19T03:32:55.552Z,127.10
2018-12-19T03:33:55.624Z,108.00
2018-12-19T03:34:55.715Z,123.00
2018-12-19T03:35:55.828Z,118.90
2018-12-19T03:36:55.876Z,124.80
2018-12-19T03:37:56.049Z,119.60
2018-12-19T03:38:56.027Z,127.00
2018-12-19T03:39:56.097Z,130.10
2018-12-19T03:40:56.204Z,135.90
2018-12-19T03:41:56.259Z,116.50
2018-12-19T03:42:56.370Z,133.50
2018-12-19T03:43:56.407Z,130.10
2018-12-19T03:44:56.492Z,118.80
2018-12-19T03:45:56.697Z,119.70
2018-12-19T03:46:56.652Z,116.50
2018-12-19T03:47:56.771Z,132.80
2018-12-19T03:48:56.799Z,129.40
2018-12-19T03:49:56.893Z,126.20
2018-12-19T03:50:57.008Z,130.90
2018-12-19T03:51:57.060Z,115.70
2018-12-19T03:52:57.167Z,127.50
2018-12-19T03:53:57.241Z,119.50
2018-12-19T03:54:57.257Z,118.10
2018-12-19T03:55:57.375Z,124.50
2018-12-19T03:56:57.455Z,122.90
2018-12-19T03:57:57.554Z,127.80
2018-12-19T03:58:57.602Z,125.00
2018-12-19T03:59:57.688Z,132.60
2018-12-19T04:00:57.779Z,126.10
2018-12-19T04:01:57.861Z,116.90
2018-12-19T04:02:57.988Z,126.30
2018-12-19T04:03:58.000Z,123.20
2018-12-19T04:04:58.068Z,129.60
2018-12-19T04:05:58.190Z,113.80
2018-12-19T04:06:58.204Z,124.30
2018-12-19T04:07:58.341Z,121.30
2018-12-19T04:08:58.389Z,119.80
2018-12-19T04:09:58.483Z,119.50
2018-12-19T04:10:58.678Z,108.00
2018-12-19T04:11:58.607Z,112.50
2018-12-19T04:12:58.713Z,117.50
2018-12-19T04:13:58.777Z,95.10
2018-12-19T04:14:58.853Z,109.80
2018-12-19T04:15:58.950Z,112.90
2018-12-19T04:16:59.008Z,100.90
2018-12-19T04:17:59.091Z,105.10
2018-12-19T04:18:59.293Z,131.50
2018-12-19T04:19:59.285Z,115.10
2018-12-19T04:20:59.348Z,102.20
2018-12-19T04:21:59.406Z,120.60
2018-12-19T04:22:59.499Z,114.60
2018-12-19T04:23:59.615Z,112.70
2018-12-19T04:24:59.707Z,106.60
2018-12-19T04:25:59.787Z,108.10
2018-12-19T04:26:59.912Z,110.70
2018-12-19T04:27:59.889Z,108.70
2018-12-19T04:29:00.001Z,123.50
2018-12-19T04:30:00.092Z,112.60
2018-12-19T04:31:00.160Z,106.70
2018-12-19T04:32:00.218Z,116.20
2018-12-19T04:33:00.299Z,115.90
2018-12-19T04:34:00.378Z,97.80
2018-12-19T04:35:00.517Z,108.60
2018-12-19T04:36:00.540Z,109.10
2018-12-19T04:37:00.605Z,110.30
2018-12-19T04:38:00.715Z,113.10
2018-12-19T04:39:00.802Z,111.70
2018-12-19T04:40:05.380Z,109.40
2018-12-19T04:41:01.945Z,102.20
2018-12-19T04:42:01.010Z,108.30
2018-12-19T04:43:01.161Z,103.00
2018-12-19T04:44:01.275Z,94.40
2018-12-19T04:45:01.283Z,99.50
2018-12-19T04:46:01.347Z,100.90
2018-12-19T04:47:01.431Z,107.80
2018-12-19T04:48:01.569Z,108.80
2018-12-19T04:49:01.597Z,103.30
2018-12-19T04:50:01.662Z,109.90
2018-12-19T04:51:01.744Z,100.20
2018-12-19T04:52:01.923Z,100.90
2018-12-19T04:53:01.886Z,89.50
2018-12-19T04:54:02.004Z,100.20
2018-12-19T04:55:02.065Z,93.70
2018-12-19T04:56:02.118Z,96.80
2018-12-19T04:57:02.191Z,104.00
2018-12-19T04:58:02.287Z,101.00
2018-12-19T04:59:02.615Z,102.90
2018-12-19T05:00:02.665Z,97.30
2018-12-19T05:01:02.508Z,89.00
2018-12-19T05:02:02.593Z,107.40
2018-12-19T05:03:02.681Z,96.00
2018-12-19T05:04:02.785Z,93.80
2018-12-19T05:05:02.855Z,85.80
2018-12-19T05:06:02.937Z,96.30
2018-12-19T05:07:02.980Z,98.60
2018-12-19T05:08:03.118Z,97.30
2018-12-19T05:09:03.151Z,89.20
2018-12-19T05:10:03.246Z,93.20
2018-12-19T05:11:03.313Z,89.80
2018-12-19T05:12:03.385Z,90.60
2018-12-19T05:13:03.437Z,85.50
2018-12-19T05:14:03.555Z,88.00
2018-12-19T05:15:03.656Z,85.70
2018-12-19T05:16:03.802Z,89.40
2018-12-19T05:17:03.756Z,90.10
2018-12-19T05:18:03.842Z,82.60
2018-12-19T05:19:03.928Z,81.50
2018-12-19T05:20:04.063Z,84.00
2018-12-19T05:21:04.102Z,78.70
2018-12-19T05:22:04.182Z,82.70
2018-12-19T05:23:04.258Z,89.80
2018-12-19T05:24:04.376Z,94.60
2018-12-19T05:25:04.497Z,84.00
2018-12-19T05:26:04.502Z,89.80
2018-12-19T05:27:04.581Z,84.60
2018-12-19T05:28:04.663Z,77.70
2018-12-19T05:29:04.759Z,74.60
2018-12-19T05:30:04.822Z,83.40
2018-12-19T05:31:04.913Z,80.10
2018-12-19T05:32:05.017Z,83.20
2018-12-19T05:33:05.227Z,84.50
2018-12-19T05:34:05.168Z,82.70
2018-12-19T05:35:05.213Z,80.30
2018-12-19T05:36:05.316Z,76.70
2018-12-19T05:37:05.395Z,77.00
2018-12-19T05:38:05.460Z,75.40
2018-12-19T05:39:05.556Z,80.80
2018-12-19T05:40:05.622Z,74.10
2018-12-19T05:41:05.767Z,68.60
2018-12-19T05:42:05.793Z,74.90
2018-12-19T05:43:05.857Z,72.80
2018-12-19T05:44:05.919Z,71.30
2018-12-19T05:45:06.000Z,70.70
2018-12-19T05:46:06.069Z,75.00
2018-12-19T05:47:06.254Z,72.80
2018-12-19T05:48:06.246Z,70.20
2018-12-19T05:49:06.428Z,69.60
2018-12-19T05:50:06.413Z,67.40
2018-12-19T05:51:06.467Z,68.50
2018-12-19T05:52:06.547Z,67.60
2018-12-19T05:53:06.630Z,71.10
2018-12-19T05:54:06.740Z,72.60
2018-12-19T05:55:06.807Z,66.70
2018-12-19T05:56:06.886Z,67.30
2018-12-19T05:57:06.990Z,71.70
2018-12-19T05:58:06.998Z,64.20
2018-12-19T05:59:07.126Z,67.90
2018-12-19T06:00:07.184Z,72.50
2018-12-19T06:01:07.280Z,60.70
2018-12-19T06:02:07.355Z,68.40
2018-12-19T06:03:07.417Z,61.10
2018-12-19T06:04:07.498Z,71.70
2018-12-19T06:05:07.715Z,68.40
2018-12-19T06:06:07.772Z,71.00
2018-12-19T06:07:07.733Z,62.80
2018-12-19T06:08:07.777Z,66.20
2018-12-19T06:09:07.870Z,63.70
2018-12-19T06:10:07.946Z,64.30
2018-12-19T06:11:08.036Z,63.00
2018-12-19T06:12:08.117Z,63.90
2018-12-19T06:13:08.180Z,60.40
2018-12-19T06:14:08.377Z,56.50
2018-12-19T06:15:08.323Z,57.50
2018-12-19T06:16:08.412Z,60.30
2018-12-19T06:17:08.497Z,59.00
2018-12-19T06:18:08.564Z,58.80
2018-12-19T06:19:08.649Z,58.50
2018-12-19T06:20:08.697Z,59.20
2018-12-19T06:21:08.809Z,58.80
2018-12-19T06:22:08.955Z,56.60
2018-12-19T06:23:08.924Z,61.40
2018-12-19T06:24:09.044Z,60.80
2018-12-19T06:25:09.071Z,61.90
2018-12-19T06:26:09.182Z,62.40
2018-12-19T06:27:09.342Z,61.20
2018-12-19T06:28:09.337Z,63.20
2018-12-19T06:29:09.429Z,61.90
2018-12-19T06:30:09.517Z,55.00
2018-12-19T06:31:09.549Z,53.90
2018-12-19T06:32:09.649Z,58.50
2018-12-19T06:33:09.705Z,55.80
2018-12-19T06:34:09.780Z,56.60
2018-12-19T06:35:09.859Z,55.00
2018-12-19T06:36:10.179Z,63.50
2018-12-19T06:37:10.037Z,52.90
2018-12-19T06:38:10.118Z,55.60
2018-12-19T06:39:10.203Z,54.40
2018-12-19T06:40:10.268Z,53.30
2018-12-19T06:41:10.362Z,53.50
2018-12-19T06:42:10.457Z,60.70
2018-12-19T06:43:10.480Z,55.60
2018-12-19T06:44:10.568Z,55.50
2018-12-19T06:45:10.671Z,52.50
2018-12-19T06:46:10.775Z,53.00
2018-12-19T06:47:10.948Z,55.40
2018-12-19T06:48:10.898Z,54.20
2018-12-19T06:49:10.993Z,56.30
2018-12-19T06:50:11.088Z,53.70
2018-12-19T06:51:11.163Z,51.60
2018-12-19T06:52:11.254Z,54.70
2018-12-19T06:53:11.297Z,49.10
2018-12-19T06:54:11.362Z,53.50
2018-12-19T06:55:11.571Z,54.90
2018-12-19T06:56:11.528Z,53.70
2018-12-19T06:57:11.647Z,51.60
2018-12-19T06:58:11.671Z,57.70
2018-12-19T06:59:11.765Z,49.90
2018-12-19T07:00:11.878Z,52.20
2018-12-19T07:01:11.932Z,52.60
2018-12-19T07:02:12.047Z,51.60
2018-12-19T07:03:12.127Z,55.50
2018-12-19T07:04:12.134Z,53.70
2018-12-19T07:05:12.249Z,54.30
2018-12-19T07:06:12.311Z,49.40
2018-12-19T07:07:12.425Z,54.10
2018-12-19T07:08:12.465Z,53.70
2018-12-19T07:09:12.543Z,57.20
2018-12-19T07:10:12.620Z,51.20
2018-12-19T07:11:12.736Z,48.20
2018-12-19T07:12:12.798Z,49.70
2018-12-19T07:13:12.837Z,53.60
2018-12-19T07:14:12.917Z,53.90
2018-12-19T07:15:13.028Z,51.00
2018-12-19T07:16:13.061Z,52.80
2018-12-19T07:17:13.191Z,51.60
2018-12-19T07:18:13.238Z,48.90
2018-12-19T07:19:13.328Z,58.60
2018-12-19T07:20:13.482Z,49.50
2018-12-19T07:21:13.446Z,50.00
2018-12-19T07:22:13.575Z,48.60
2018-12-19T07:23:13.616Z,54.20
2018-12-19T07:24:13.694Z,50.60
2018-12-19T07:25:13.789Z,50.30
2018-12-19T07:26:13.845Z,49.10
2018-12-19T07:27:13.956Z,49.10
2018-12-19T07:28:14.072Z,51.50
2018-12-19T07:29:14.079Z,55.30
2018-12-19T07:30:14.170Z,56.60
2018-12-19T07:31:14.233Z,56.60
2018-12-19T07:32:14.326Z,51.30
2018-12-19T07:33:14.389Z,55.00
2018-12-19T07:34:14.491Z,54.50
2018-12-19T07:35:14.580Z,55.20
2018-12-19T07:36:14.720Z,53.60
2018-12-19T07:37:14.712Z,53.60
2018-12-19T07:38:14.786Z,49.90
2018-12-19T07:39:14.877Z,50.50
2018-12-19T07:40:14.975Z,52.20
2018-12-19T07:41:15.045Z,49.70
2018-12-19T07:42:15.131Z,55.00
2018-12-19T07:43:15.177Z,52.60
2018-12-19T07:44:15.299Z,50.00
2018-12-19T07:45:15.337Z,47.80
2018-12-19T07:46:19.807Z,44.40
2018-12-19T07:47:15.496Z,47.30
2018-12-19T07:48:15.575Z,49.20
2018-12-19T07:49:15.631Z,47.20
2018-12-19T07:50:15.739Z,46.00
2018-12-19T07:51:15.814Z,45.40
2018-12-19T07:52:15.933Z,48.40
2018-12-19T07:53:16.024Z,49.30
2018-12-19T07:54:16.053Z,41.30
2018-12-19T07:55:16.131Z,45.20
2018-12-19T07:56:16.219Z,43.80
2018-12-19T07:57:16.286Z,44.90
2018-12-19T07:58:16.391Z,45.60
2018-12-19T07:59:16.437Z,46.70
2018-12-19T08:00:16.561Z,45.10
2018-12-19T08:01:17.444Z,44.50
2018-12-19T08:02:16.669Z,40.30
2018-12-19T08:03:16.782Z,43.60
2018-12-19T08:04:16.823Z,42.60
2018-12-19T08:05:16.920Z,42.50
2018-12-19T08:06:16.962Z,40.60
2018-12-19T08:07:17.085Z,40.60
2018-12-19T08:08:17.146Z,42.80
2018-12-19T08:09:17.290Z,41.90
2018-12-19T08:10:17.295Z,41.80
2018-12-19T08:11:17.336Z,43.90
2018-12-19T08:12:17.446Z,40.80
2018-12-19T08:13:17.530Z,44.00
2018-12-19T08:14:17.587Z,36.80
2018-12-19T08:15:17.916Z,38.50
2018-12-19T08:16:17.737Z,39.90
2018-12-19T08:17:17.906Z,40.40
2018-12-19T08:18:17.901Z,38.70
2018-12-19T08:19:17.966Z,41.30
2018-12-19T08:20:18.059Z,38.80
2018-12-19T08:21:18.116Z,41.10
2018-12-19T08:22:18.198Z,40.10
2018-12-19T08:23:18.273Z,40.20
2018-12-19T08:24:18.349Z,39.50
2018-12-19T08:25:18.499Z,40.20
2018-12-19T08:26:19.336Z,40.20
2018-12-19T08:27:18.589Z,37.80
2018-12-19T08:28:18.644Z,36.10
2018-12-19T08:29:18.700Z,36.50
2018-12-19T08:30:18.812Z,38.40
2018-12-19T08:31:18.875Z,40.70
2018-12-19T08:32:18.969Z,39.50
2018-12-19T08:33:19.113Z,39.20
2018-12-19T08:34:19.133Z,40.50
2018-12-19T08:35:19.197Z,38.60
2018-12-19T08:36:19.282Z,37.00
2018-12-19T08:37:19.340Z,40.80
2018-12-19T08:38:19.461Z,41.50
2018-12-19T08:39:19.498Z,38.30
2018-12-19T08:40:19.565Z,36.90
2018-12-19T08:41:19.678Z,37.60
2018-12-19T08:42:19.822Z,37.10
2018-12-19T08:43:19.830Z,38.40
2018-12-19T08:44:19.861Z,37.20
2018-12-19T08:45:19.959Z,35.00
2018-12-19T08:46:20.048Z,38.20
2018-12-19T08:47:20.122Z,39.20
2018-12-19T08:48:20.256Z,37.20
2018-12-19T08:49:20.286Z,39.30
2018-12-19T08:50:20.461Z,40.20
2018-12-19T08:51:20.450Z,40.10
2018-12-19T08:52:20.534Z,44.20
2018-12-19T08:53:20.659Z,42.70
2018-12-19T08:54:20.692Z,40.30
2018-12-19T08:55:20.744Z,39.50
2018-12-19T08:56:20.850Z,42.00
2018-12-19T08:57:20.950Z,43.10
2018-12-19T08:58:21.135Z,37.30
2018-12-19T08:59:21.079Z,43.00
2018-12-19T09:00:21.166Z,42.70
2018-12-19T09:01:21.240Z,47.30
2018-12-19T09:02:21.324Z,44.10
2018-12-19T09:03:21.424Z,47.40
2018-12-19T09:04:25.792Z,40.60
2018-12-19T09:05:21.564Z,40.60
2018-12-19T09:06:21.695Z,37.40
2018-12-19T09:07:21.679Z,43.70
2018-12-19T09:08:21.796Z,51.40
2018-12-19T09:09:21.867Z,45.10
2018-12-19T09:10:21.937Z,47.30
2018-12-19T09:11:22.038Z,45.20
2018-12-19T09:12:22.148Z,44.40
2018-12-19T09:13:22.181Z,48.00
2018-12-19T09:14:22.313Z,42.70
2018-12-19T09:15:27.495Z,38.60
2018-12-19T09:16:23.441Z,43.70
2018-12-19T09:17:22.522Z,42.50
2018-12-19T09:18:22.588Z,47.00
2018-12-19T09:19:22.658Z,43.50
2018-12-19T09:20:22.754Z,41.70
2018-12-19T09:21:22.850Z,43.30
2018-12-19T09:22:22.932Z,39.90
2018-12-19T09:23:23.093Z,42.90
2018-12-19T09:24:23.063Z,43.90
2018-12-19T09:25:23.141Z,44.20
2018-12-19T09:26:23.236Z,38.50
2018-12-19T09:27:23.297Z,41.90
2018-12-19T09:28:23.383Z,36.30
2018-12-19T09:29:23.457Z,45.30
2018-12-19T09:30:23.530Z,36.40
2018-12-19T09:31:23.745Z,40.50
2018-12-19T09:32:23.698Z,42.50
2018-12-19T09:33:27.364Z,55.80
2018-12-19T09:34:23.833Z,40.20
2018-12-19T09:35:23.918Z,37.90
2018-12-19T09:36:24.026Z,40.20
2018-12-19T09:37:24.088Z,40.40
2018-12-19T09:38:24.180Z,38.70
2018-12-19T09:39:24.286Z,42.70
2018-12-19T09:40:24.285Z,43.50
2018-12-19T09:41:24.403Z,41.20
2018-12-19T09:42:24.465Z,40.80
2018-12-19T09:43:24.556Z,41.90
2018-12-19T09:44:24.634Z,40.70
2018-12-19T09:45:24.696Z,38.00
2018-12-19T09:46:24.772Z,40.50
2018-12-19T09:47:24.906Z,39.60
2018-12-19T09:48:24.901Z,40.80
2018-12-19T09:49:24.988Z,40.80
2018-12-19T09:50:25.076Z,39.70
2018-12-19T09:51:25.173Z,40.60
2018-12-19T09:52:25.228Z,41.30
2018-12-19T09:53:25.309Z,36.90
2018-12-19T09:54:25.654Z,39.80
2018-12-19T09:55:25.516Z,38.10
2018-12-19T09:56:25.636Z,37.10
2018-12-19T09:57:25.713Z,35.80
2018-12-19T09:58:25.806Z,41.40
2018-12-19T09:59:25.913Z,38.30
2018-12-19T10:00:26.005Z,38.10
2018-12-19T10:01:26.086Z,36.60
2018-12-19T10:02:26.163Z,35.70
2018-12-19T10:03:26.210Z,37.20
2018-12-19T10:04:26.462Z,33.90
2018-12-19T10:05:26.393Z,37.60
2018-12-19T10:06:26.485Z,33.20
2018-12-19T10:07:26.558Z,36.00
2018-12-19T10:08:26.616Z,34.10
2018-12-19T10:09:26.736Z,35.60
2018-12-19T10:10:26.825Z,34.40
2018-12-19T10:11:26.897Z,33.70
2018-12-19T10:12:27.054Z,37.60
2018-12-19T10:13:27.021Z,34.80
2018-12-19T10:14:27.103Z,33.00
2018-12-19T10:15:27.177Z,30.90
2018-12-19T10:16:27.276Z,29.20
2018-12-19T10:17:27.356Z,35.10
2018-12-19T10:18:27.414Z,30.60
2018-12-19T10:19:27.508Z,32.60
2018-12-19T10:20:27.583Z,32.20
2018-12-19T10:21:27.645Z,33.20
2018-12-19T10:22:27.732Z,33.20
2018-12-19T10:23:27.790Z,31.60
2018-12-19T10:24:27.883Z,31.20
2018-12-19T10:25:27.939Z,32.20
2018-12-19T10:26:28.017Z,30.40
2018-12-19T10:27:28.114Z,30.00
2018-12-19T10:28:28.228Z,28.70
2018-12-19T10:29:28.283Z,33.00
2018-12-19T10:30:28.349Z,29.00
2018-12-19T10:31:28.427Z,28.90
2018-12-19T10:32:28.522Z,32.00
2018-12-19T10:33:28.602Z,32.30
2018-12-19T10:34:28.691Z,30.50
2018-12-19T10:35:28.749Z,32.30
2018-12-19T10:36:28.855Z,32.50
2018-12-19T10:37:29.042Z,29.00
2018-12-19T10:38:28.984Z,29.80
2018-12-19T10:39:29.076Z,28.00
2018-12-19T10:40:29.135Z,28.30
2018-12-19T10:41:29.231Z,27.60
2018-12-19T10:42:29.288Z,30.60
2018-12-19T10:43:29.352Z,28.80
2018-12-19T10:44:29.457Z,28.60
2018-12-19T10:45:29.640Z,29.00
2018-12-19T10:46:29.626Z,27.00
2018-12-19T10:47:29.672Z,28.50
2018-12-19T10:48:29.743Z,29.00
2018-12-19T10:49:29.848Z,34.80
2018-12-19T10:50:29.907Z,29.90
2018-12-19T10:51:29.998Z,28.90
2018-12-19T10:52:30.072Z,33.00
2018-12-19T10:53:30.170Z,29.10
2018-12-19T10:54:30.215Z,29.80
2018-12-19T10:55:30.286Z,30.00
2018-12-19T10:56:30.370Z,29.20
2018-12-19T10:57:30.440Z,28.80
2018-12-19T10:58:30.515Z,29.00
2018-12-19T10:59:30.595Z,26.00
2018-12-19T11:00:30.671Z,27.90
2018-12-19T11:01:30.804Z,27.50
2018-12-19T11:02:30.833Z,27.50
2018-12-19T11:03:30.986Z,27.70
2018-12-19T11:04:31.002Z,28.50
2018-12-19T11:05:31.044Z,29.20
2018-12-19T11:06:31.153Z,30.50
2018-12-19T11:07:31.242Z,33.00
2018-12-19T11:08:31.300Z,30.70
2018-12-19T11:09:31.451Z,30.50
2018-12-19T11:10:31.504Z,32.30
2018-12-19T11:11:32.443Z,27.30
2018-12-19T11:12:31.619Z,28.90
2018-12-19T11:13:31.688Z,28.70
2018-12-19T11:14:31.779Z,28.10
2018-12-19T11:15:31.841Z,26.90
2018-12-19T11:16:31.927Z,25.50
2018-12-19T11:17:32.038Z,28.60
2018-12-19T11:18:32.196Z,27.50
2018-12-19T11:19:32.185Z,28.10
2018-12-19T11:20:32.244Z,26.90
2018-12-19T11:21:32.475Z,27.40
2018-12-19T11:22:32.415Z,27.00
2018-12-19T11:23:32.473Z,23.70
2018-12-19T11:24:32.566Z,24.60
2018-12-19T11:25:32.626Z,27.80
2018-12-19T11:26:32.813Z,27.10
2018-12-19T11:27:32.800Z,26.70
2018-12-19T11:28:32.861Z,30.30
2018-12-19T11:29:32.948Z,29.80
2018-12-19T11:30:33.018Z,26.50
2018-12-19T11:31:33.478Z,28.90
2018-12-19T11:32:33.400Z,28.70
2018-12-19T11:33:33.250Z,24.90
2018-12-19T11:34:33.420Z,27.80
2018-12-19T11:35:33.403Z,28.80
2018-12-19T11:36:33.496Z,27.90
2018-12-19T11:37:33.605Z,28.70
2018-12-19T11:38:33.628Z,25.10
2018-12-19T11:39:33.734Z,26.90
2018-12-19T11:40:33.798Z,25.50
2018-12-19T11:41:38.991Z,25.70
2018-12-19T11:42:35.029Z,27.50
2018-12-19T11:43:34.005Z,24.00
2018-12-19T11:44:34.088Z,24.70
2018-12-19T11:45:34.171Z,25.40
2018-12-19T11:46:34.484Z,25.40
2018-12-19T11:47:34.372Z,28.30
2018-12-19T11:48:34.409Z,27.30
2018-12-19T11:49:34.504Z,26.60
2018-12-19T11:50:34.571Z,23.10
2018-12-19T11:51:34.683Z,26.20
2018-12-19T11:52:34.752Z,22.50
2018-12-19T11:53:34.793Z,23.90
2018-12-19T11:54:34.925Z,24.50
2018-12-19T11:55:34.926Z,26.10
2018-12-19T11:56:35.047Z,26.80
2018-12-19T11:57:35.132Z,25.20
2018-12-19T11:58:35.189Z,25.90
2018-12-19T11:59:35.378Z,27.70
2018-12-19T12:00:35.394Z,26.00
2018-12-19T12:01:41.150Z,24.00
2018-12-19T12:02:36.513Z,25.20
2018-12-19T12:03:35.568Z,25.70
2018-12-19T12:04:35.644Z,24.80
2018-12-19T12:05:35.739Z,24.20
2018-12-19T12:06:35.812Z,23.90
2018-12-19T12:07:36.014Z,25.00
2018-12-19T12:08:35.962Z,26.40
2018-12-19T12:09:36.046Z,24.50
2018-12-19T12:10:36.896Z,24.40
2018-12-19T12:11:36.203Z,24.90
2018-12-19T12:12:36.323Z,24.50
2018-12-19T12:13:36.369Z,24.90
2018-12-19T12:14:36.448Z,23.70
2018-12-19T12:15:36.628Z,23.90
2018-12-19T12:16:36.581Z,25.50
2018-12-19T12:17:36.687Z,25.50
2018-12-19T12:18:36.765Z,24.60
2018-12-19T12:19:36.843Z,26.90
2018-12-19T12:20:36.933Z,23.80
2018-12-19T12:21:36.991Z,23.40
2018-12-19T12:22:37.096Z,22.40
2018-12-19T12:23:37.209Z,24.90
2018-12-19T12:24:37.218Z,26.90
2018-12-19T12:25:37.324Z,24.60
2018-12-19T12:26:37.382Z,23.60
2018-12-19T12:27:37.478Z,24.00
2018-12-19T12:28:37.570Z,25.80
2018-12-19T12:29:37.599Z,25.90
2018-12-19T12:30:37.710Z,24.00
2018-12-19T12:31:37.807Z,22.00
2018-12-19T12:32:38.001Z,22.00
2018-12-19T12:33:37.967Z,25.50
2018-12-19T12:34:38.008Z,23.60
2018-12-19T12:35:38.116Z,24.30
2018-12-19T12:36:38.184Z,23.00
2018-12-19T12:37:38.273Z,23.10
2018-12-19T12:38:38.348Z,22.20
2018-12-19T12:39:38.412Z,24.50
2018-12-19T12:40:38.628Z,22.70
2018-12-19T12:41:38.564Z,23.40
2018-12-19T12:42:38.665Z,24.00
2018-12-19T12:43:38.722Z,23.70
2018-12-19T12:44:38.805Z,31.70